Air Park, Nebraska
Current Conditions -  °F | °C
As of 8:54 PM on Sunday 23 Nov 2014 (Local Time) from KLNK Reporting Station
Clear Clear  
Wind Chill:   Ceiling: Unl
Heat Index:   Visibility: 10mi
Dew Point: -3°   Wind: 22mph
Humidity: 55%   Direction: 320°NW
Pressure: 29.59"   Gusts: 30mph
Location:  40.8731°N, 96.8015°W
Report Text: KLNK 240254Z 32019G26KT 10SM CLR 05/M03 A2959 RMK AO2 PK WND 31026/0253 SLP020 T00501033 50004
Loading
Personal Weather Stations






























Interactive Weather Map New forecast layout! Learn more

10-Day Weather Forecast

Advertisements
Track Severe Weather on mobile